Prairieview, Illinois
Current Conditions -  °F | °C
As of 7:52 AM on Monday 22 Dec 2014 (Local Time) from KPWK Reporting Station
Haze Haze  
Wind Chill: 28°   Ceiling: 4300
Heat Index: 33°   Visibility: 5mi
Dew Point: 27°   Wind: 6mph
Humidity: 78%   Direction: 130°SE
Pressure: 29.94"   Gusts: NA
Location:  42.1941°N, 87.9317°W
Report Text: KPWK 221352Z 13005KT 5SM HZ BKN043 OVC080 01/M03 A2994 RMK AO2 SLP144 T00061028
Loading
Personal Weather Stations






























Interactive Weather Map New forecast layout! Learn more

10-Day Weather Forecast

Advertisements
Track Severe Weather on mobile